Ah Gwah Ching, Minnesota
Current Conditions -  °F | °C
As of 6:15 PM on Thursday 27 Nov 2014 (Local Time) from KY49 Reporting Station
Scattered Clouds Scattered Clouds  
Wind Chill:   Ceiling: Unl
Heat Index:   Visibility: 10mi
Dew Point: -5°   Wind: 0mph
Humidity: 62%   Direction: NA
Pressure: 30.23"   Gusts: NA
Location:  47.08°N, 94.57°W
Report Text: KY49 280015Z AUTO 00000KT 10SM SCT120 M15/M21 A3023 RMK AO2 T11501208
Loading
Personal Weather Stations






























Interactive Weather Map New forecast layout! Learn more

10-Day Weather Forecast

Advertisements
Track Severe Weather on mobile